createdAt,value
2019-03-15T00:01:34.873Z,5.67
2019-03-15T00:04:03.367Z,3.53
2019-03-15T00:06:31.900Z,5.63
2019-03-15T00:09:00.388Z,3.93
2019-03-15T00:11:29.346Z,2.70
2019-03-15T00:13:58.036Z,4.47
2019-03-15T00:16:26.505Z,6.07
2019-03-15T00:18:54.999Z,5.70
2019-03-15T00:21:23.478Z,4.17
2019-03-15T00:23:51.948Z,6.47
2019-03-15T00:26:20.443Z,6.17
2019-03-15T00:28:48.919Z,6.27
2019-03-15T00:31:17.414Z,4.87
2019-03-15T00:33:45.882Z,6.13
2019-03-15T00:36:14.375Z,4.73
2019-03-15T00:38:42.850Z,8.83
2019-03-15T00:41:11.347Z,5.77
2019-03-15T00:43:39.819Z,7.43
2019-03-15T00:46:08.316Z,5.27
2019-03-15T00:48:36.785Z,4.67
2019-03-15T00:51:05.350Z,5.53
2019-03-15T00:53:33.828Z,7.20
2019-03-15T00:56:02.328Z,8.30
2019-03-15T00:58:30.799Z,7.63
2019-03-15T01:00:59.290Z,6.20
2019-03-15T01:03:27.760Z,7.77
2019-03-15T01:05:56.258Z,7.27
2019-03-15T01:08:24.731Z,7.40
2019-03-15T01:10:53.229Z,8.83
2019-03-15T01:13:21.701Z,8.73
2019-03-15T01:15:50.200Z,7.60
2019-03-15T01:18:18.671Z,8.00
2019-03-15T01:20:47.165Z,9.13
2019-03-15T01:23:15.638Z,11.90
2019-03-15T01:25:44.130Z,9.37
2019-03-15T01:28:12.595Z,9.33
2019-03-15T01:30:41.098Z,12.13
2019-03-15T01:33:09.569Z,9.87
2019-03-15T01:35:38.073Z,12.90
2019-03-15T01:38:06.543Z,6.80
2019-03-15T01:40:35.083Z,9.53
2019-03-15T01:43:03.519Z,11.37
2019-03-15T01:45:32.032Z,11.97
2019-03-15T01:48:00.511Z,9.33
2019-03-15T01:50:29.007Z,9.53
2019-03-15T01:52:58.498Z,10.70
2019-03-15T01:55:27.073Z,9.47
2019-03-15T01:57:55.531Z,10.50
2019-03-15T02:00:24.035Z,13.20
2019-03-15T02:02:52.497Z,11.57
2019-03-15T02:05:20.997Z,10.83
2019-03-15T02:07:49.469Z,11.93
2019-03-15T02:10:17.976Z,12.10
2019-03-15T02:12:47.487Z,10.17
2019-03-15T02:15:16.197Z,10.67
2019-03-15T02:17:44.669Z,11.60
2019-03-15T02:20:13.434Z,12.27
2019-03-15T02:22:41.931Z,15.30
2019-03-15T02:25:10.407Z,12.47
2019-03-15T02:27:39.135Z,7.70
2019-03-15T02:30:10.366Z,9.93
2019-03-15T02:32:39.405Z,10.83
2019-03-15T02:35:08.484Z,10.83
2019-03-15T02:37:36.964Z,15.37
2019-03-15T02:40:06.714Z,11.20
2019-03-15T02:42:35.209Z,11.50
2019-03-15T02:45:03.759Z,10.83
2019-03-15T02:47:32.246Z,13.30
2019-03-15T02:50:01.780Z,11.37
2019-03-15T02:52:30.687Z,11.73
2019-03-15T02:54:59.153Z,12.40
2019-03-15T02:57:27.642Z,17.20
2019-03-15T02:59:56.097Z,8.67
2019-03-15T03:02:24.590Z,13.47
2019-03-15T03:04:53.053Z,16.70
2019-03-15T03:07:21.543Z,8.60
2019-03-15T03:09:50.019Z,13.03
2019-03-15T03:12:18.514Z,8.90
2019-03-15T03:14:46.971Z,11.83
2019-03-15T03:17:15.461Z,14.00
2019-03-15T03:19:43.930Z,7.97
2019-03-15T03:22:12.435Z,8.50
2019-03-15T03:24:40.879Z,9.63
2019-03-15T03:27:09.371Z,8.20
2019-03-15T03:29:37.831Z,6.77
2019-03-15T03:32:06.355Z,6.90
2019-03-15T03:34:35.067Z,9.00
2019-03-15T03:37:03.690Z,6.90
2019-03-15T03:39:32.198Z,12.17
2019-03-15T03:42:00.639Z,13.20
2019-03-15T03:44:29.106Z,8.87
2019-03-15T03:46:57.600Z,6.90
2019-03-15T03:49:26.065Z,9.00
2019-03-15T03:51:54.553Z,8.20
2019-03-15T03:54:23.083Z,6.87
2019-03-15T03:56:51.585Z,10.13
2019-03-15T03:59:20.115Z,7.30
2019-03-15T04:01:48.611Z,9.37
2019-03-15T04:04:17.322Z,6.90
2019-03-15T04:06:45.876Z,7.03
2019-03-15T04:09:14.340Z,8.73
2019-03-15T04:11:54.594Z,12.30
2019-03-15T04:14:13.031Z,7.47
2019-03-15T04:16:41.517Z,6.20
2019-03-15T04:19:09.991Z,10.43
2019-03-15T04:21:38.471Z,8.80
2019-03-15T04:24:06.938Z,5.73
2019-03-15T04:26:35.441Z,13.97
2019-03-15T04:29:03.905Z,6.33
2019-03-15T04:31:32.398Z,6.27
2019-03-15T04:34:00.857Z,9.07
2019-03-15T04:36:29.343Z,8.33
2019-03-15T04:38:57.804Z,8.33
2019-03-15T04:41:26.299Z,6.83
2019-03-15T04:43:54.752Z,4.53
2019-03-15T04:46:23.237Z,3.63
2019-03-15T04:48:51.702Z,9.00
2019-03-15T04:51:20.193Z,5.07
2019-03-15T04:53:48.666Z,6.57
2019-03-15T04:56:17.144Z,5.87
2019-03-15T04:58:45.610Z,9.17
2019-03-15T05:01:14.068Z,4.83
2019-03-15T05:03:42.553Z,7.73
2019-03-15T05:06:11.024Z,7.00
2019-03-15T05:08:39.574Z,6.03
2019-03-15T05:11:08.675Z,7.73
2019-03-15T05:13:37.209Z,5.13
2019-03-15T05:16:05.674Z,5.33
2019-03-15T05:18:34.376Z,11.57
2019-03-15T05:21:02.936Z,8.83
2019-03-15T05:23:31.410Z,7.87
2019-03-15T05:25:59.869Z,8.33
2019-03-15T05:28:28.356Z,9.77
2019-03-15T05:30:56.817Z,7.60
2019-03-15T05:33:25.302Z,8.23
2019-03-15T05:35:53.763Z,5.70
2019-03-15T05:38:22.245Z,9.97
2019-03-15T05:40:50.708Z,7.10
2019-03-15T05:43:19.198Z,11.00
2019-03-15T05:45:47.666Z,6.67
2019-03-15T05:48:16.157Z,6.93
2019-03-15T05:50:44.618Z,8.37
2019-03-15T05:53:13.102Z,6.23
2019-03-15T05:55:41.562Z,8.27
2019-03-15T05:58:10.055Z,11.60
2019-03-15T06:00:38.517Z,7.40
2019-03-15T06:03:06.999Z,8.03
2019-03-15T06:05:35.466Z,14.40
2019-03-15T06:08:03.958Z,7.27
2019-03-15T06:10:32.417Z,6.47
2019-03-15T06:13:00.901Z,8.83
2019-03-15T06:15:29.363Z,9.53
2019-03-15T06:17:57.852Z,11.67
2019-03-15T06:20:26.321Z,5.83
2019-03-15T06:22:54.808Z,8.40
2019-03-15T06:25:23.273Z,9.20
2019-03-15T06:27:51.762Z,12.87
2019-03-15T06:30:20.261Z,9.43
2019-03-15T06:32:48.823Z,9.13
2019-03-15T06:35:17.284Z,8.03
2019-03-15T06:37:45.775Z,13.40
2019-03-15T06:40:14.243Z,7.00
2019-03-15T06:42:42.738Z,7.23
2019-03-15T06:45:14.324Z,8.83
2019-03-15T06:47:42.859Z,6.73
2019-03-15T06:50:11.402Z,10.63
2019-03-15T06:52:39.887Z,7.40
2019-03-15T06:55:09.398Z,7.27
2019-03-15T06:57:37.884Z,9.37
2019-03-15T07:00:09.405Z,10.07
2019-03-15T07:02:37.889Z,8.40
2019-03-15T07:05:07.891Z,7.47
2019-03-15T07:07:36.386Z,14.30
2019-03-15T07:10:07.592Z,8.77
2019-03-15T07:12:36.086Z,7.50
2019-03-15T07:15:06.684Z,9.07
2019-03-15T07:17:35.170Z,7.13
2019-03-15T07:20:05.079Z,8.67
2019-03-15T07:22:33.563Z,8.60
2019-03-15T07:25:02.035Z,10.47
2019-03-15T07:27:30.529Z,8.90
2019-03-15T07:30:00.089Z,7.80
2019-03-15T07:32:28.756Z,11.67
2019-03-15T07:34:57.213Z,8.57
2019-03-15T07:37:25.688Z,8.00
2019-03-15T07:39:54.186Z,10.57
2019-03-15T07:42:22.655Z,12.13
2019-03-15T07:44:51.239Z,11.30
2019-03-15T07:47:19.691Z,5.50
2019-03-15T07:49:48.209Z,9.90
2019-03-15T07:52:16.694Z,12.43
2019-03-15T07:54:45.173Z,8.90
2019-03-15T07:57:13.636Z,9.77
2019-03-15T07:59:42.140Z,10.60
2019-03-15T08:02:10.607Z,11.77
2019-03-15T08:04:39.102Z,12.33
2019-03-15T08:07:07.564Z,11.60
2019-03-15T08:09:36.057Z,13.20
2019-03-15T08:12:04.527Z,11.77
2019-03-15T08:14:33.017Z,9.23
2019-03-15T08:17:01.483Z,14.20
2019-03-15T08:19:29.980Z,12.77
2019-03-15T08:21:58.445Z,8.53
2019-03-15T08:24:26.941Z,11.40
2019-03-15T08:26:55.404Z,9.57
2019-03-15T08:29:23.896Z,9.73
2019-03-15T08:31:52.363Z,8.10
2019-03-15T08:34:20.863Z,14.87
2019-03-15T08:36:49.326Z,10.27
2019-03-15T08:39:17.820Z,9.67
2019-03-15T08:41:46.287Z,8.53
2019-03-15T08:44:14.801Z,11.37
2019-03-15T08:46:43.268Z,8.33
2019-03-15T08:49:11.749Z,6.97
2019-03-15T08:51:40.213Z,7.97
2019-03-15T08:54:08.701Z,10.97
2019-03-15T08:56:37.174Z,10.57
2019-03-15T08:59:05.679Z,13.33
2019-03-15T09:01:34.141Z,10.60
2019-03-15T09:04:02.624Z,8.57
2019-03-15T09:06:31.096Z,8.57
2019-03-15T09:08:59.579Z,15.17
2019-03-15T09:11:28.053Z,10.63
2019-03-15T09:13:56.616Z,12.47
2019-03-15T09:16:25.085Z,10.87
2019-03-15T09:18:55.520Z,10.90
2019-03-15T09:21:23.768Z,9.73
2019-03-15T09:23:52.260Z,5.40
2019-03-15T09:26:20.731Z,6.23
2019-03-15T09:28:49.303Z,9.20
2019-03-15T09:31:17.758Z,9.07
2019-03-15T09:33:46.352Z,11.80
2019-03-15T09:36:14.790Z,9.87
2019-03-15T09:38:43.278Z,5.63
2019-03-15T09:41:11.743Z,8.77
2019-03-15T09:43:40.229Z,8.03
2019-03-15T09:46:08.705Z,10.40
2019-03-15T09:48:37.205Z,10.87
2019-03-15T09:51:05.674Z,11.83
2019-03-15T09:53:34.163Z,8.50
2019-03-15T09:56:02.621Z,8.83
2019-03-15T09:58:31.080Z,9.03
2019-03-15T10:01:00.002Z,7.97
2019-03-15T10:03:28.717Z,4.73
2019-03-15T10:05:57.201Z,6.70
2019-03-15T10:08:25.667Z,7.40
2019-03-15T10:10:54.156Z,7.00
2019-03-15T10:13:22.611Z,8.00
2019-03-15T10:15:51.294Z,11.40
2019-03-15T10:18:19.850Z,8.67
2019-03-15T10:20:48.336Z,9.60
2019-03-15T10:23:16.807Z,7.73
2019-03-15T10:25:47.140Z,9.30
2019-03-15T10:28:15.478Z,7.97
2019-03-15T10:30:43.959Z,8.53
2019-03-15T10:33:12.496Z,5.67
2019-03-15T10:35:40.989Z,8.63
2019-03-15T10:38:09.561Z,8.27
2019-03-15T10:40:38.115Z,8.13
2019-03-15T10:43:06.575Z,7.60
2019-03-15T10:45:35.060Z,8.10
2019-03-15T10:48:03.520Z,6.57
2019-03-15T10:50:32.006Z,9.87
2019-03-15T10:53:00.475Z,7.83
2019-03-15T10:55:28.965Z,6.27
2019-03-15T10:57:57.427Z,8.73
2019-03-15T11:00:26.095Z,6.60
2019-03-15T11:02:54.567Z,6.77
2019-03-15T11:05:23.055Z,8.50
2019-03-15T11:07:51.512Z,9.03
2019-03-15T11:10:20.012Z,6.80
2019-03-15T11:12:48.482Z,7.07
2019-03-15T11:15:17.297Z,10.53
2019-03-15T11:17:45.787Z,9.37
2019-03-15T11:20:14.626Z,7.70
2019-03-15T11:22:43.228Z,9.03
2019-03-15T11:25:12.647Z,6.70
2019-03-15T11:27:41.109Z,6.80
2019-03-15T11:30:16.500Z,8.10
2019-03-15T11:32:44.892Z,5.63
2019-03-15T11:35:13.457Z,7.53
2019-03-15T11:37:41.928Z,7.00
2019-03-15T11:40:14.134Z,10.23
2019-03-15T11:42:42.722Z,8.93
2019-03-15T11:45:12.260Z,6.63
2019-03-15T11:48:01.346Z,7.23
2019-03-15T11:50:13.595Z,7.10
2019-03-15T11:52:42.124Z,7.27
2019-03-15T11:55:11.127Z,6.87
2019-03-15T11:57:39.595Z,8.30
2019-03-15T12:00:13.839Z,11.77
2019-03-15T12:02:42.305Z,8.20
2019-03-15T12:05:11.049Z,10.10
2019-03-15T12:07:39.511Z,13.27
2019-03-15T12:10:12.560Z,9.83
2019-03-15T12:12:41.030Z,11.77
2019-03-15T12:15:14.237Z,14.57
2019-03-15T12:17:42.706Z,9.30
2019-03-15T12:20:12.446Z,8.30
2019-03-15T12:22:40.970Z,10.13
2019-03-15T12:25:10.496Z,8.50
2019-03-15T12:27:38.962Z,15.10
2019-03-15T12:30:13.381Z,12.03
2019-03-15T12:32:41.846Z,14.47
2019-03-15T12:35:11.773Z,15.50
2019-03-15T12:37:40.244Z,12.60
2019-03-15T12:40:14.120Z,10.57
2019-03-15T12:42:42.579Z,8.03
2019-03-15T12:45:13.092Z,8.43
2019-03-15T12:47:41.559Z,5.20
2019-03-15T12:50:11.491Z,6.53
2019-03-15T12:52:46.987Z,4.87
2019-03-15T12:55:12.387Z,7.30
2019-03-15T12:57:40.845Z,5.13
2019-03-15T13:00:14.493Z,6.73
2019-03-15T13:02:47.755Z,6.57
2019-03-15T13:05:16.228Z,5.60
2019-03-15T13:07:44.690Z,8.93
2019-03-15T13:10:20.839Z,7.13
2019-03-15T13:12:49.473Z,7.60
2019-03-15T13:15:18.309Z,7.00
2019-03-15T13:17:46.842Z,7.03
2019-03-15T13:20:18.588Z,12.73
2019-03-15T13:22:47.128Z,7.80
2019-03-15T13:25:15.619Z,7.23
2019-03-15T13:27:44.082Z,7.10
2019-03-15T13:30:15.632Z,7.27
2019-03-15T13:32:44.086Z,6.60
2019-03-15T13:35:14.237Z,6.60
2019-03-15T13:37:43.397Z,14.83
2019-03-15T13:40:17.495Z,8.63
2019-03-15T13:42:45.954Z,6.90
2019-03-15T13:45:15.357Z,7.73
2019-03-15T13:47:43.854Z,7.50
2019-03-15T13:50:19.674Z,8.30
2019-03-15T13:52:48.163Z,5.33
2019-03-15T13:55:16.622Z,6.20
2019-03-15T13:57:45.328Z,3.57
2019-03-15T14:00:17.831Z,4.93
2019-03-15T14:02:46.400Z,5.07
2019-03-15T14:05:15.008Z,4.50
2019-03-15T14:07:43.494Z,6.47
2019-03-15T14:10:17.182Z,4.40
2019-03-15T14:12:45.729Z,6.70
2019-03-15T14:15:17.240Z,5.30
2019-03-15T14:17:45.796Z,5.57
2019-03-15T14:20:14.442Z,3.73
2019-03-15T14:22:42.925Z,3.97
2019-03-15T14:25:27.863Z,5.90
2019-03-15T14:27:56.347Z,4.23
2019-03-15T14:30:24.816Z,2.93
2019-03-15T14:32:53.299Z,4.33
2019-03-15T14:35:21.758Z,3.83
2019-03-15T14:37:50.250Z,4.60
2019-03-15T14:40:18.714Z,3.27
2019-03-15T14:42:47.412Z,2.80
2019-03-15T14:45:16.540Z,7.77
2019-03-15T14:47:45.143Z,5.53
2019-03-15T14:50:14.640Z,4.70
2019-03-15T14:52:43.126Z,5.23
2019-03-15T14:55:16.757Z,4.63
2019-03-15T14:57:52.569Z,4.50
2019-03-15T15:00:19.195Z,6.03
2019-03-15T15:02:47.751Z,4.57
2019-03-15T15:05:19.230Z,6.03
2019-03-15T15:07:47.726Z,4.37
2019-03-15T15:10:19.205Z,4.23
2019-03-15T15:12:47.752Z,3.97
2019-03-15T15:15:20.266Z,4.70
2019-03-15T15:17:48.757Z,4.87
2019-03-15T15:20:17.256Z,5.27
2019-03-15T15:22:45.776Z,3.07
2019-03-15T15:25:15.455Z,3.07
2019-03-15T15:27:44.210Z,5.00
2019-03-15T15:30:16.837Z,4.43
2019-03-15T15:32:45.327Z,4.10
2019-03-15T15:35:14.736Z,2.47
2019-03-15T15:37:43.220Z,2.73
2019-03-15T15:40:17.453Z,2.80
2019-03-15T15:42:45.942Z,3.20
2019-03-15T15:45:14.835Z,2.37
2019-03-15T15:47:43.487Z,2.23
2019-03-15T15:50:16.096Z,2.90
2019-03-15T15:52:44.759Z,2.63
2019-03-15T15:55:15.217Z,5.40
2019-03-15T15:57:43.819Z,3.67
2019-03-15T16:00:14.722Z,3.17
2019-03-15T16:02:43.214Z,5.07
2019-03-15T16:05:11.910Z,2.97
2019-03-15T16:07:40.399Z,2.57
2019-03-15T16:10:11.675Z,2.77
2019-03-15T16:12:40.233Z,2.57
2019-03-15T16:15:13.343Z,3.23
2019-03-15T16:17:45.077Z,3.13
2019-03-15T16:20:12.465Z,5.00
2019-03-15T16:22:40.949Z,3.80
2019-03-15T16:25:10.714Z,7.83
2019-03-15T16:27:39.361Z,5.13
2019-03-15T16:30:10.887Z,7.23
2019-03-15T16:32:39.352Z,5.37
2019-03-15T16:35:10.271Z,4.77
2019-03-15T16:37:38.730Z,4.43
2019-03-15T16:40:10.107Z,4.23
2019-03-15T16:42:38.636Z,3.23
2019-03-15T16:45:10.239Z,4.00
2019-03-15T16:47:38.701Z,4.90
2019-03-15T16:50:10.430Z,3.80
2019-03-15T16:52:38.896Z,5.83
2019-03-15T16:55:10.229Z,4.47
2019-03-15T16:57:38.704Z,14.63
2019-03-15T17:00:10.570Z,4.00
2019-03-15T17:02:39.035Z,5.17
2019-03-15T17:05:09.964Z,4.47
2019-03-15T17:07:38.501Z,5.20
2019-03-15T17:10:12.561Z,3.83
2019-03-15T17:12:41.038Z,3.83
2019-03-15T17:15:15.029Z,3.33
2019-03-15T17:17:43.497Z,3.37
2019-03-15T17:20:12.658Z,4.27
2019-03-15T17:22:41.120Z,4.27
2019-03-15T17:25:11.248Z,3.90
2019-03-15T17:27:39.728Z,4.07
2019-03-15T17:30:18.553Z,3.77
2019-03-15T17:32:47.019Z,4.97
2019-03-15T17:35:17.049Z,4.97
2019-03-15T17:37:45.519Z,3.80
2019-03-15T17:40:15.466Z,4.00
2019-03-15T17:42:43.924Z,4.03
2019-03-15T17:45:12.763Z,4.97
2019-03-15T17:47:41.245Z,4.27
2019-03-15T17:50:15.330Z,5.30
2019-03-15T17:52:43.845Z,7.60
2019-03-15T17:55:12.534Z,5.53
2019-03-15T17:57:41.065Z,5.17
2019-03-15T18:00:12.472Z,5.40
2019-03-15T18:02:40.940Z,6.33
2019-03-15T18:05:10.075Z,5.47
2019-03-15T18:07:38.540Z,8.90
2019-03-15T18:10:08.369Z,6.07
2019-03-15T18:12:36.835Z,6.93
2019-03-15T18:15:08.195Z,7.23
2019-03-15T18:17:36.608Z,5.83
2019-03-15T18:20:07.349Z,7.83
2019-03-15T18:22:35.814Z,8.83
2019-03-15T18:25:05.933Z,6.90
2019-03-15T18:27:34.469Z,8.37
2019-03-15T18:30:04.902Z,13.43
2019-03-15T18:32:33.378Z,14.47
2019-03-15T18:35:01.883Z,16.67
2019-03-15T18:37:30.352Z,16.20
2019-03-15T18:39:59.180Z,21.70
2019-03-15T18:42:27.846Z,22.43
2019-03-15T18:44:56.345Z,27.00
2019-03-15T18:47:24.823Z,24.00
2019-03-15T18:49:53.394Z,24.43
2019-03-15T18:52:21.872Z,23.73
2019-03-15T18:54:50.376Z,26.37
2019-03-15T18:57:18.850Z,26.53
2019-03-15T18:59:47.350Z,27.83
2019-03-15T19:02:15.834Z,25.33
2019-03-15T19:04:44.338Z,27.17
2019-03-15T19:07:12.820Z,24.00
2019-03-15T19:09:41.311Z,25.37
2019-03-15T19:12:09.819Z,16.13
2019-03-15T19:14:38.292Z,15.73
2019-03-15T19:17:06.763Z,18.80
2019-03-15T19:19:35.263Z,16.30
2019-03-15T19:22:03.738Z,12.60
2019-03-15T19:24:32.235Z,11.37
2019-03-15T19:27:00.701Z,4.83
2019-03-15T19:29:29.169Z,3.20
2019-03-15T19:31:57.687Z,2.93
2019-03-15T19:34:26.129Z,3.93
2019-03-15T19:36:54.623Z,3.47
2019-03-15T19:39:23.101Z,4.10
2019-03-15T19:41:51.582Z,4.17
2019-03-15T19:44:20.051Z,3.30
2019-03-15T19:46:48.563Z,5.03
2019-03-15T19:49:17.012Z,7.97
2019-03-15T19:51:45.524Z,7.37
2019-03-15T19:54:13.983Z,6.27
2019-03-15T19:56:42.471Z,3.97
2019-03-15T19:59:10.944Z,5.10
2019-03-15T20:01:39.437Z,5.17
2019-03-15T20:04:07.908Z,2.27
2019-03-15T20:06:36.397Z,5.10
2019-03-15T20:09:07.324Z,3.30
2019-03-15T20:11:35.826Z,3.87
2019-03-15T20:14:04.455Z,7.37
2019-03-15T20:16:32.957Z,5.57
2019-03-15T20:19:01.427Z,4.23
2019-03-15T20:21:31.709Z,4.23
2019-03-15T20:24:00.170Z,4.43
2019-03-15T20:26:28.659Z,4.63
2019-03-15T20:28:57.121Z,5.83
2019-03-15T20:31:25.609Z,8.97
2019-03-15T20:33:54.073Z,5.70
2019-03-15T20:36:22.561Z,4.87
2019-03-15T20:38:51.025Z,3.00
2019-03-15T20:41:19.872Z,5.47
2019-03-15T20:43:48.426Z,5.87
2019-03-15T20:46:16.915Z,9.17
2019-03-15T20:48:45.380Z,4.40
2019-03-15T20:51:13.874Z,4.73
2019-03-15T20:53:42.404Z,5.63
2019-03-15T20:56:10.891Z,4.00
2019-03-15T20:58:39.351Z,7.10
2019-03-15T21:01:07.840Z,4.20
2019-03-15T21:03:36.306Z,7.17
2019-03-15T21:06:04.963Z,6.80
2019-03-15T21:08:33.422Z,3.67
2019-03-15T21:11:01.909Z,8.23
2019-03-15T21:13:33.622Z,7.57
2019-03-15T21:16:00.596Z,8.20
2019-03-15T21:18:29.055Z,4.50
2019-03-15T21:20:57.540Z,4.30
2019-03-15T21:23:26.007Z,7.50
2019-03-15T21:25:54.495Z,7.07
2019-03-15T21:28:22.957Z,6.80
2019-03-15T21:30:51.453Z,5.30
2019-03-15T21:33:19.915Z,4.27
2019-03-15T21:35:48.391Z,6.03
2019-03-15T21:38:16.863Z,6.03
2019-03-15T21:40:45.348Z,5.20
2019-03-15T21:43:13.807Z,2.43
2019-03-15T21:45:42.297Z,6.70
2019-03-15T21:48:10.759Z,5.00
2019-03-15T21:50:39.261Z,6.40
2019-03-15T21:53:07.708Z,5.57
2019-03-15T21:55:36.174Z,4.73
2019-03-15T21:58:04.655Z,3.83
2019-03-15T22:00:33.290Z,4.13
2019-03-15T22:03:01.781Z,5.80
2019-03-15T22:05:30.248Z,5.27
2019-03-15T22:07:58.732Z,4.37
2019-03-15T22:10:27.193Z,6.10
2019-03-15T22:12:55.681Z,4.27
2019-03-15T22:15:24.143Z,3.30
2019-03-15T22:17:52.768Z,4.43
2019-03-15T22:20:21.369Z,5.37
2019-03-15T22:22:49.868Z,7.40
2019-03-15T22:25:18.329Z,2.80
2019-03-15T22:27:49.995Z,2.73
2019-03-15T22:30:17.011Z,4.03
2019-03-15T22:32:45.501Z,6.70
2019-03-15T22:35:14.311Z,3.37
2019-03-15T22:37:42.780Z,4.20
2019-03-15T22:40:12.982Z,5.00
2019-03-15T22:42:41.468Z,4.23
2019-03-15T22:45:11.669Z,3.33
2019-03-15T22:47:40.231Z,5.83
2019-03-15T22:50:10.329Z,5.87
2019-03-15T22:52:38.914Z,8.30
2019-03-15T22:55:09.019Z,7.93
2019-03-15T22:57:37.515Z,6.50
2019-03-15T23:00:21.657Z,4.67
2019-03-15T23:02:50.334Z,3.50
2019-03-15T23:05:18.947Z,2.60
2019-03-15T23:07:47.433Z,9.80
2019-03-15T23:10:15.894Z,4.07
2019-03-15T23:12:44.387Z,5.57
2019-03-15T23:15:13.100Z,5.67
2019-03-15T23:17:41.656Z,4.73
2019-03-15T23:20:11.958Z,5.93
2019-03-15T23:22:40.448Z,4.47
2019-03-15T23:25:09.477Z,5.60
2019-03-15T23:27:38.000Z,8.00
2019-03-15T23:30:14.775Z,4.33
2019-03-15T23:32:43.267Z,6.33
2019-03-15T23:35:11.778Z,3.87
2019-03-15T23:37:40.276Z,7.40
2019-03-15T23:40:15.790Z,5.57
2019-03-15T23:42:44.283Z,6.07
2019-03-15T23:45:13.009Z,5.07
2019-03-15T23:47:41.496Z,8.37
2019-03-15T23:50:14.271Z,5.70
2019-03-15T23:52:42.828Z,7.10
2019-03-15T23:55:11.580Z,10.13
2019-03-15T23:57:40.021Z,6.87
